createdAt,value
2023-03-23T15:59:59.661Z,18.88
2023-03-23T16:02:27.550Z,18.80
2023-03-23T16:04:55.703Z,18.75
2023-03-23T16:07:25.920Z,18.92
2023-03-23T16:09:55.356Z,18.74
2023-03-23T16:12:23.285Z,18.80
2023-03-23T16:14:51.319Z,18.74
2023-03-23T16:17:21.596Z,18.53
2023-03-23T16:19:50.031Z,18.47
2023-03-23T16:22:18.745Z,18.63
2023-03-23T16:24:47.219Z,18.42
2023-03-23T16:27:17.796Z,18.44
2023-03-23T16:30:03.200Z,18.48
2023-03-23T16:34:59.690Z,18.30
2023-03-23T16:37:33.214Z,18.33
2023-03-23T16:40:01.660Z,18.05
2023-03-23T16:42:30.909Z,18.09
2023-03-23T16:44:58.749Z,18.29
2023-03-23T16:47:26.654Z,18.13
2023-03-23T16:49:54.624Z,18.02
2023-03-23T16:52:22.586Z,17.96
2023-03-23T16:54:50.457Z,18.08
2023-03-23T16:57:18.258Z,17.74
2023-03-23T16:59:47.673Z,17.81
2023-03-23T17:02:16.259Z,17.91
2023-03-23T17:04:45.284Z,17.91
2023-03-23T17:07:16.032Z,17.96
2023-03-23T17:09:43.942Z,17.98
2023-03-23T17:12:12.349Z,18.03
2023-03-23T17:14:41.689Z,17.85
2023-03-23T17:17:11.763Z,17.83
2023-03-23T17:19:40.491Z,17.95
2023-03-23T17:22:09.084Z,17.81
2023-03-23T17:24:37.043Z,17.92
2023-03-23T17:27:05.272Z,17.91
2023-03-23T17:29:33.687Z,17.89
2023-03-23T17:32:01.692Z,17.88
2023-03-23T17:34:31.177Z,17.82
2023-03-23T17:36:59.200Z,17.82
2023-03-23T17:39:28.033Z,17.86
2023-03-23T17:41:56.002Z,17.78
2023-03-23T17:44:23.861Z,17.71
2023-03-23T17:46:51.871Z,17.58
2023-03-23T17:49:20.627Z,17.55
2023-03-23T17:51:49.907Z,17.54
2023-03-23T17:54:18.049Z,17.62
2023-03-23T17:56:46.174Z,17.67
2023-03-23T17:59:14.111Z,17.50
2023-03-23T18:01:42.004Z,17.53
2023-03-23T18:04:11.623Z,17.53
2023-03-23T18:06:39.530Z,17.48
2023-03-23T18:09:09.128Z,17.42
2023-03-23T18:11:37.326Z,17.51
2023-03-23T18:14:07.521Z,17.55
2023-03-23T18:16:35.727Z,17.54
2023-03-23T18:19:03.768Z,17.55
2023-03-23T18:21:31.668Z,17.33
2023-03-23T18:24:00.231Z,17.24
2023-03-23T18:26:30.427Z,17.47
2023-03-23T18:28:58.368Z,17.48
2023-03-23T18:31:26.685Z,17.29
2023-03-23T18:33:57.767Z,17.39
2023-03-23T18:36:28.315Z,17.43
2023-03-23T18:38:57.764Z,17.49
2023-03-23T18:41:26.337Z,17.35
2023-03-23T18:43:57.581Z,17.28
2023-03-23T18:46:26.511Z,17.27
2023-03-23T18:48:54.388Z,17.31
2023-03-23T18:51:23.538Z,17.20
2023-03-23T18:53:51.508Z,17.21
2023-03-23T18:56:19.656Z,17.17
2023-03-23T18:58:47.648Z,17.11
2023-03-23T19:01:18.755Z,17.24
2023-03-23T19:03:48.271Z,17.09
2023-03-23T19:06:19.395Z,17.02
2023-03-23T19:08:47.914Z,17.18
2023-03-23T19:11:17.069Z,17.11
2023-03-23T19:14:00.402Z,17.19
2023-03-23T19:16:35.941Z,17.25
2023-03-23T19:19:07.871Z,17.09
2023-03-23T19:24:05.886Z,17.13
2023-03-23T19:26:37.973Z,17.13
2023-03-23T19:31:41.616Z,17.00
2023-03-23T19:34:11.147Z,17.13
2023-03-23T19:36:40.707Z,16.99
2023-03-23T19:39:09.651Z,17.00
2023-03-23T19:41:38.452Z,17.14
2023-03-23T19:44:08.613Z,17.09
2023-03-23T19:46:37.182Z,17.06
2023-03-23T19:49:07.712Z,16.96
2023-03-23T19:51:36.706Z,17.00
2023-03-23T19:54:09.177Z,16.99
2023-03-23T19:56:38.334Z,16.95
2023-03-23T19:59:09.586Z,17.06
2023-03-23T20:01:38.384Z,16.96
2023-03-23T20:04:08.151Z,17.06
2023-03-23T20:06:37.679Z,17.05
2023-03-23T20:09:07.363Z,16.89
2023-03-23T20:11:35.863Z,16.96
2023-03-23T20:14:05.304Z,16.79
2023-03-23T20:16:34.846Z,16.94
2023-03-23T20:19:05.868Z,16.91
2023-03-23T20:21:39.076Z,16.91
2023-03-23T20:24:07.664Z,16.93
2023-03-23T20:26:38.453Z,17.04
2023-03-23T20:29:08.020Z,16.98
2023-03-23T20:31:39.920Z,17.03
2023-03-23T20:34:10.988Z,17.03
2023-03-23T20:36:45.383Z,17.04
2023-03-23T20:39:19.226Z,17.04
2023-03-23T20:41:48.702Z,16.87
2023-03-23T20:44:17.170Z,16.91
2023-03-23T20:46:46.305Z,16.92
2023-03-23T20:49:16.349Z,16.91
2023-03-23T20:51:47.223Z,17.01
2023-03-23T20:54:17.847Z,16.89
2023-03-23T20:56:47.327Z,16.97
2023-03-23T20:59:17.058Z,16.97
2023-03-23T21:01:46.633Z,16.96
2023-03-23T21:04:19.761Z,16.72
2023-03-23T21:06:52.080Z,16.73
2023-03-23T21:09:20.880Z,16.89
2023-03-23T21:11:49.873Z,16.89
2023-03-23T21:14:18.340Z,16.94
2023-03-23T21:16:46.795Z,16.93
2023-03-23T21:19:16.096Z,16.88
2023-03-23T21:21:55.507Z,16.85
2023-03-23T21:24:28.174Z,16.81
2023-03-23T21:26:58.576Z,16.79
2023-03-23T21:29:28.354Z,16.78
2023-03-23T21:34:28.541Z,16.74
2023-03-23T21:36:56.853Z,16.72
2023-03-23T21:39:28.421Z,16.69
2023-03-23T21:41:56.700Z,16.67
2023-03-23T21:44:24.746Z,16.68
2023-03-23T21:46:54.391Z,16.65
2023-03-23T21:49:22.891Z,16.60
2023-03-23T21:51:51.156Z,16.60
2023-03-23T21:54:20.866Z,16.59
2023-03-23T21:56:50.425Z,16.59
2023-03-23T21:59:18.451Z,16.56
2023-03-23T22:01:48.020Z,16.51
2023-03-23T22:04:16.993Z,16.52
2023-03-23T22:06:45.394Z,16.43
2023-03-23T22:09:14.599Z,16.34
2023-03-23T22:11:43.319Z,16.35
2023-03-23T22:14:13.725Z,16.36
2023-03-23T22:16:42.733Z,16.32
2023-03-23T22:19:13.889Z,16.24
2023-03-23T22:21:44.527Z,16.11
2023-03-23T22:24:13.204Z,16.10
2023-03-23T22:26:41.447Z,16.12
2023-03-23T22:29:11.347Z,16.09
2023-03-23T22:31:45.547Z,16.14
2023-03-23T22:34:14.309Z,16.16
2023-03-23T22:36:42.740Z,16.13
2023-03-23T22:39:11.329Z,16.18
2023-03-23T22:41:42.024Z,16.23
2023-03-23T22:44:13.893Z,16.24
2023-03-23T22:46:43.608Z,16.27
2023-03-23T22:49:12.612Z,16.17
2023-03-23T22:51:41.612Z,16.02
2023-03-23T22:54:11.519Z,16.18
2023-03-23T22:56:39.587Z,16.08
2023-03-23T22:59:07.981Z,16.21
2023-03-23T23:01:36.481Z,16.29
2023-03-23T23:04:07.036Z,16.30
2023-03-23T23:06:35.603Z,16.28
2023-03-23T23:09:04.222Z,16.23
2023-03-23T23:11:32.694Z,16.23
2023-03-23T23:14:01.043Z,16.09
2023-03-23T23:16:29.372Z,16.12
2023-03-23T23:18:58.047Z,16.09
2023-03-23T23:21:28.960Z,16.01
2023-03-23T23:23:57.269Z,15.95
2023-03-23T23:26:25.548Z,15.97
2023-03-23T23:28:54.009Z,16.01
2023-03-23T23:31:27.111Z,15.90
2023-03-23T23:33:57.092Z,15.98
2023-03-23T23:36:29.827Z,15.98
2023-03-23T23:39:01.028Z,15.73
2023-03-23T23:41:30.449Z,15.86
2023-03-23T23:43:59.435Z,15.89
2023-03-23T23:46:28.079Z,15.92
2023-03-23T23:48:56.192Z,15.94
2023-03-23T23:51:27.096Z,15.89
2023-03-23T23:53:58.915Z,15.84
2023-03-23T23:56:29.302Z,15.57
2023-03-23T23:58:58.109Z,15.20
